Trident, Montana
Current Conditions -  °F | °C
As of 2:56 AM on Monday 20 Oct 2014 (Local Time) from KBZN Reporting Station
Clear Clear  
Wind Chill: 30°   Ceiling: Unl
Heat Index: 35°   Visibility: 10mi
Dew Point: 28°   Wind: 6mph
Humidity: 76%   Direction: 140°SE
Pressure: 30"   Gusts: NA
Location:  45.8877°N, 111.462°W
Report Text: KBZN 200856Z AUTO 14005KT 10SM CLR 02/M02 A3000 RMK AO2 SLP152 T00171022 57002
Loading
Personal Weather Stations






























Interactive Weather Map
Tropical Storm Tracking
New forecast layout! Learn more

10-Day Weather Forecast

Advertisements
Track Severe Weather on mobile